Date,TemperatureHighF,TemperatureAvgF,TemperatureLowF,DewpointHighF,DewpointAvgF,DewpointLowF,HumidityHigh,HumidityAvg,HumidityLow,PressureMaxIn,PressureMinIn,WindSpeedMaxMPH,WindSpeedAvgMPH,GustSpeedMaxMPH,PrecipitationSumIn
2013-12-1,55.2,50.4,42.6,49.7,46.2,39.9,95,86,79,30.16,29.90,6,0,8,0.00
2013-12-2,63.8,49.4,40.4,52.2,43.7,38.3,97,82,54,29.91,29.70,7,0,7,0.00
2013-12-3,69.3,50.4,35.3,52.4,44.2,33.5,98,82,43,29.72,29.57,10,0,10,0.01
2013-12-4,61.3,47.4,33.9,49.4,41.3,28.8,95,81,54,29.97,29.58,16,2,18,0.00
2013-12-5,33.7,25.3,20.2,29.2,19.5,15.4,86,79,63,30.24,29.97,11,2,13,0.64
2013-12-6,20.4,18.4,16.7,16.4,13.1,7.2,86,79,66,30.51,30.19,10,2,10,0.31
2013-12-7,20.9,16.2,9.4,10.2,5.0,0.7,72,61,46,30.58,30.26,7,1,7,0.00
2013-12-8,28.6,25.3,20.7,25.3,20.5,8.4,89,82,58,30.28,30.00,9,1,11,0.00
2013-12-9,27.6,24.0,21.0,23.1,16.2,12.3,83,72,60,30.42,30.27,9,1,11,0.00
2013-12-10,36.5,23.2,14.3,19.4,14.2,9.2,85,70,38,30.53,30.37,10,0,11,0.00
2013-12-11,35.9,25.7,18.8,23.6,18.1,12.5,90,73,51,30.70,30.36,9,0,10,0.00
2013-12-12,40.7,27.1,13.1,21.0,14.9,8.6,84,62,36,30.68,30.38,11,1,11,0.00
2013-12-13,36.3,34.5,30.5,34.0,28.2,18.2,93,78,54,30.38,29.96,11,1,14,0.68
2013-12-14,35.9,31.8,25.4,34.1,28.5,20.8,93,88,79,30.35,29.94,15,2,15,0.30
2013-12-15,49.2,34.0,19.8,32.1,25.4,16.6,91,72,49,30.37,30.24,12,1,13,0.00
2013-12-16,57.8,45.9,38.9,32.0,29.0,25.9,66,53,30,30.27,30.18,12,2,12,0.00
2013-12-17,54.1,41.4,29.4,33.2,27.5,20.6,89,60,30,30.39,30.25,10,0,11,0.00
2013-12-18,57.8,44.6,26.4,35.0,29.1,20.8,84,57,33,30.34,30.04,19,3,19,0.00
2013-12-19,57.8,52.6,48.5,51.7,44.1,34.2,82,73,54,30.05,29.82,21,5,21,0.00
2013-12-20,59.6,43.3,31.0,53.7,39.2,28.4,93,86,71,29.97,29.82,19,2,19,0.31
2013-12-21,38.4,34.3,29.9,37.1,32.7,27.6,95,94,91,29.89,29.55,14,1,15,1.67
2013-12-22,31.6,26.7,22.9,29.6,22.7,17.7,93,85,79,30.39,29.78,13,3,14,0.00
2013-12-23,24.6,20.8,14.9,18.5,15.6,10.5,84,80,71,30.60,30.38,7,1,8,0.00
2013-12-24,38.4,24.1,12.5,23.7,16.6,9.1,88,74,53,30.59,30.30,11,1,12,0.00
2013-12-25,40.5,30.5,21.7,29.6,23.9,18.2,90,77,64,30.45,30.32,7,1,10,0.00
2013-12-26,45.4,29.5,17.2,30.2,20.0,14.0,94,71,37,30.45,30.36,12,0,12,0.00
2013-12-27,52.0,34.3,21.2,30.2,22.6,17.3,90,66,34,30.48,30.37,12,1,12,0.00
2013-12-28,49.6,34.4,22.6,31.6,23.7,18.2,87,68,33,30.37,30.01,8,1,9,0.00
2013-12-29,43.0,32.2,21.6,37.8,26.0,12.9,86,78,71,30.31,30.01,13,2,16,0.00
2013-12-30,40.7,27.8,19.5,25.9,19.4,13.8,84,71,52,30.42,30.24,11,1,12,0.00
2013-12-31,54.6,35.0,18.3,31.8,21.9,15.0,88,63,32,30.44,30.23,13,1,14,0.00